createdAt,value
2022-10-17T00:01:26.930Z,13.01
2022-10-17T00:04:29.043Z,13.04
2022-10-17T00:07:31.468Z,13.08
2022-10-17T00:10:33.595Z,13.08
2022-10-17T00:13:36.257Z,13.06
2022-10-17T00:16:38.333Z,13.09
2022-10-17T00:19:40.582Z,13.03
2022-10-17T00:22:42.668Z,12.98
2022-10-17T00:25:45.066Z,12.97
2022-10-17T00:28:48.781Z,12.98
2022-10-17T00:31:54.965Z,12.97
2022-10-17T00:34:58.002Z,12.94
2022-10-17T00:38:00.673Z,12.96
2022-10-17T00:41:03.328Z,12.99
2022-10-17T00:44:31.692Z,13.03
2022-10-17T00:47:34.402Z,13.04
2022-10-17T00:50:39.288Z,13.12
2022-10-17T00:53:41.292Z,13.10
2022-10-17T00:56:44.107Z,13.11
2022-10-17T00:59:52.092Z,13.11
2022-10-17T01:02:54.544Z,13.08
2022-10-17T01:05:57.409Z,13.12
2022-10-17T01:09:00.172Z,13.07
2022-10-17T01:12:17.350Z,13.05
2022-10-17T01:15:37.504Z,12.99
2022-10-17T01:19:16.698Z,12.94
2022-10-17T01:22:37.405Z,12.91
2022-10-17T01:25:50.363Z,12.88
2022-10-17T01:29:33.178Z,12.90
2022-10-17T01:32:39.931Z,12.90
2022-10-17T01:36:06.115Z,12.89
2022-10-17T01:39:21.532Z,12.86
2022-10-17T01:42:31.601Z,12.83
2022-10-17T01:46:06.188Z,12.76
2022-10-17T01:49:10.352Z,12.70
2022-10-17T01:52:16.578Z,12.73
2022-10-17T01:55:21.805Z,12.67
2022-10-17T01:58:34.487Z,12.62
2022-10-17T02:01:38.581Z,12.59
2022-10-17T02:04:42.154Z,12.55
2022-10-17T02:07:44.410Z,12.45
2022-10-17T02:11:02.590Z,12.42
2022-10-17T02:14:04.873Z,12.37
2022-10-17T02:17:25.901Z,12.35
2022-10-17T02:21:07.335Z,12.36
2022-10-17T02:24:31.945Z,12.33
2022-10-17T02:27:45.470Z,12.28
2022-10-17T02:30:57.070Z,12.29
2022-10-17T02:34:03.074Z,12.29
2022-10-17T02:37:07.611Z,12.27
2022-10-17T02:40:11.209Z,12.17
2022-10-17T02:43:14.753Z,12.11
2022-10-17T02:46:22.496Z,12.10
2022-10-17T02:49:28.921Z,12.14
2022-10-17T02:52:40.553Z,12.15
2022-10-17T02:55:54.284Z,12.11
2022-10-17T02:58:58.807Z,12.15
2022-10-17T03:02:04.148Z,12.18
2022-10-17T03:05:07.520Z,12.17
2022-10-17T03:08:09.562Z,12.10
2022-10-17T03:11:11.844Z,12.14
2022-10-17T03:14:14.760Z,12.13
2022-10-17T03:17:17.943Z,12.19
2022-10-17T03:20:20.841Z,12.33
2022-10-17T03:23:23.185Z,12.39
2022-10-17T03:26:25.335Z,12.40
2022-10-17T03:29:27.838Z,12.43
2022-10-17T03:32:30.059Z,12.45
2022-10-17T03:35:32.275Z,12.50
2022-10-17T03:38:35.637Z,12.46
2022-10-17T03:41:38.098Z,12.51
2022-10-17T03:44:40.146Z,12.48
2022-10-17T03:47:42.591Z,12.52
2022-10-17T03:50:45.073Z,12.57
2022-10-17T03:53:47.526Z,12.59
2022-10-17T03:56:49.585Z,12.63
2022-10-17T03:59:54.795Z,12.65
2022-10-17T04:02:58.241Z,12.70
2022-10-17T04:06:03.723Z,12.67
2022-10-17T04:09:08.202Z,12.70
2022-10-17T04:12:19.510Z,12.68
2022-10-17T04:15:22.112Z,12.70
2022-10-17T04:18:24.764Z,12.73
2022-10-17T04:21:28.393Z,12.71
2022-10-17T04:24:32.487Z,12.67
2022-10-17T04:27:43.780Z,12.60
2022-10-17T04:30:46.907Z,12.55
2022-10-17T04:33:50.679Z,12.47
2022-10-17T04:36:53.186Z,12.43
2022-10-17T04:39:55.496Z,12.44
2022-10-17T04:42:57.951Z,12.38
2022-10-17T04:46:13.630Z,12.32
2022-10-17T04:49:16.117Z,12.31
2022-10-17T04:52:21.108Z,12.22
2022-10-17T04:55:26.198Z,12.23
2022-10-17T04:58:30.091Z,12.26
2022-10-17T05:01:32.440Z,12.21
2022-10-17T05:04:35.089Z,12.17
2022-10-17T05:07:40.827Z,12.16
2022-10-17T05:10:48.962Z,12.13
2022-10-17T05:13:56.560Z,12.11
2022-10-17T05:16:59.644Z,12.14
2022-10-17T05:20:02.122Z,12.09
2022-10-17T05:23:06.673Z,12.08
2022-10-17T05:26:14.736Z,12.10
2022-10-17T05:29:17.358Z,12.10
2022-10-17T05:32:25.335Z,12.09
2022-10-17T05:35:27.372Z,12.14
2022-10-17T05:38:29.677Z,12.12
2022-10-17T05:41:32.314Z,12.19
2022-10-17T05:44:34.677Z,12.29
2022-10-17T05:47:36.818Z,12.32
2022-10-17T05:50:39.815Z,12.38
2022-10-17T05:53:50.060Z,12.42
2022-10-17T05:56:58.883Z,12.50
2022-10-17T06:00:06.363Z,12.50
2022-10-17T06:03:18.980Z,12.58
2022-10-17T06:06:22.333Z,12.67
2022-10-17T06:09:24.674Z,12.78
2022-10-17T06:12:29.409Z,12.91
2022-10-17T06:15:32.472Z,13.01
2022-10-17T06:18:40.200Z,13.12
2022-10-17T06:21:47.371Z,13.50
2022-10-17T06:24:54.738Z,13.64
2022-10-17T06:27:58.280Z,13.61
2022-10-17T06:31:05.046Z,13.54
2022-10-17T06:34:07.151Z,13.60
2022-10-17T06:37:10.560Z,13.73
2022-10-17T06:40:16.907Z,13.71
2022-10-17T06:43:25.563Z,13.80
2022-10-17T06:46:50.386Z,13.80
2022-10-17T06:49:53.589Z,13.81
2022-10-17T06:53:01.530Z,13.90
2022-10-17T06:56:26.867Z,14.01
2022-10-17T06:59:44.487Z,14.06
2022-10-17T07:02:53.018Z,14.08
2022-10-17T07:05:56.201Z,14.06
2022-10-17T07:09:01.140Z,14.14
2022-10-17T07:12:03.497Z,14.29
2022-10-17T07:15:06.221Z,14.35
2022-10-17T07:18:10.016Z,14.52
2022-10-17T07:21:12.190Z,14.57
2022-10-17T07:24:15.674Z,14.68
2022-10-17T07:27:22.611Z,14.71
2022-10-17T07:30:24.949Z,14.74
2022-10-17T07:33:47.503Z,14.86
2022-10-17T07:36:52.089Z,15.03
2022-10-17T07:39:54.676Z,15.11
2022-10-17T07:42:56.878Z,15.11
2022-10-17T07:46:01.731Z,15.16
2022-10-17T07:49:04.926Z,15.24
2022-10-17T07:52:07.545Z,15.36
2022-10-17T07:55:10.040Z,15.48
2022-10-17T07:58:12.990Z,15.47
2022-10-17T08:01:15.927Z,15.51
2022-10-17T08:04:18.656Z,15.67
2022-10-17T08:07:25.492Z,15.84
2022-10-17T08:10:30.890Z,15.91
2022-10-17T08:13:33.159Z,15.97
2022-10-17T08:16:35.737Z,16.09
2022-10-17T08:19:40.978Z,16.20
2022-10-17T08:22:43.453Z,16.30
2022-10-17T08:25:45.539Z,16.39
2022-10-17T08:28:48.192Z,16.49
2022-10-17T08:31:54.088Z,16.57
2022-10-17T08:35:01.353Z,16.67
2022-10-17T08:38:03.846Z,16.77
2022-10-17T08:41:32.545Z,16.87
2022-10-17T08:44:53.443Z,17.02
2022-10-17T08:48:00.564Z,17.13
2022-10-17T08:51:09.614Z,17.32
2022-10-17T08:54:18.633Z,17.56
2022-10-17T08:57:20.881Z,17.75
2022-10-17T09:00:23.682Z,18.07
2022-10-17T09:03:41.839Z,18.33
2022-10-17T09:07:08.742Z,18.49
2022-10-17T09:10:38.815Z,18.75
2022-10-17T09:13:41.057Z,18.94
2022-10-17T09:17:12.557Z,19.24
2022-10-17T09:20:16.546Z,19.46
2022-10-17T09:23:28.580Z,19.31
2022-10-17T09:26:30.976Z,19.61
2022-10-17T09:29:37.949Z,19.76
2022-10-17T09:32:43.115Z,19.94
2022-10-17T09:35:46.066Z,20.13
2022-10-17T09:39:13.748Z,20.22
2022-10-17T09:42:22.051Z,20.32
2022-10-17T09:45:26.794Z,20.56
2022-10-17T09:48:34.227Z,20.76
2022-10-17T09:51:37.914Z,20.91
2022-10-17T09:54:41.839Z,21.13
2022-10-17T09:58:04.861Z,21.38
2022-10-17T10:01:26.890Z,21.44
2022-10-17T10:04:30.383Z,21.40
2022-10-17T10:07:39.662Z,21.48
2022-10-17T10:10:45.861Z,21.76
2022-10-17T10:13:49.554Z,21.90
2022-10-17T10:16:53.884Z,22.16
2022-10-17T10:19:56.461Z,22.45
2022-10-17T10:23:14.442Z,22.67
2022-10-17T10:26:27.887Z,22.82
2022-10-17T10:29:34.510Z,22.87
2022-10-17T10:32:37.701Z,22.73
2022-10-17T10:35:40.168Z,22.77
2022-10-17T10:38:43.642Z,22.60
2022-10-17T10:41:48.925Z,22.53
2022-10-17T10:44:52.457Z,22.76
2022-10-17T10:47:56.962Z,22.91
2022-10-17T10:51:02.749Z,23.10
2022-10-17T10:54:21.594Z,23.04
2022-10-17T10:57:25.941Z,22.94
2022-10-17T11:00:29.457Z,22.91
2022-10-17T11:03:38.038Z,23.10
2022-10-17T11:06:41.945Z,23.43
2022-10-17T11:09:50.120Z,23.55
2022-10-17T11:13:04.098Z,23.62
2022-10-17T11:16:24.806Z,23.50
2022-10-17T11:19:34.247Z,23.56
2022-10-17T11:22:47.184Z,23.36
2022-10-17T11:25:51.833Z,23.53
2022-10-17T11:28:55.030Z,23.77
2022-10-17T11:32:06.146Z,23.89
2022-10-17T11:35:23.715Z,24.04
2022-10-17T11:38:46.312Z,24.04
2022-10-17T11:41:58.837Z,23.86
2022-10-17T11:45:18.604Z,23.97
2022-10-17T11:49:04.118Z,24.01
2022-10-17T11:52:56.466Z,24.11
2022-10-17T11:56:00.630Z,24.29
2022-10-17T11:59:29.860Z,24.22
2022-10-17T12:02:39.175Z,24.25
2022-10-17T12:05:53.292Z,24.17
2022-10-17T12:09:04.218Z,24.07
2022-10-17T12:12:07.029Z,24.03
2022-10-17T12:15:12.051Z,23.92
2022-10-17T12:18:17.346Z,24.08
2022-10-17T12:21:19.487Z,24.05
2022-10-17T12:24:34.533Z,24.13
2022-10-17T12:27:42.311Z,24.04
2022-10-17T12:30:50.487Z,23.79
2022-10-17T12:34:03.652Z,23.77
2022-10-17T12:37:11.433Z,24.04
2022-10-17T12:40:35.097Z,23.90
2022-10-17T12:43:44.933Z,23.79
2022-10-17T12:46:57.535Z,23.80
2022-10-17T12:50:00.000Z,23.73
2022-10-17T12:53:06.762Z,23.92
2022-10-17T12:56:09.303Z,23.85
2022-10-17T12:59:14.361Z,23.68
2022-10-17T13:02:20.638Z,23.80
2022-10-17T13:05:28.501Z,23.55
2022-10-17T13:08:34.351Z,23.72
2022-10-17T13:11:38.152Z,23.74
2022-10-17T13:14:42.640Z,23.68
2022-10-17T13:17:45.107Z,23.71
2022-10-17T13:21:07.223Z,23.56
2022-10-17T13:24:32.733Z,23.51
2022-10-17T13:27:35.856Z,23.54
2022-10-17T13:30:38.117Z,23.31
2022-10-17T13:33:41.081Z,23.16
2022-10-17T13:36:48.516Z,23.05
2022-10-17T13:40:07.068Z,23.10
2022-10-17T13:43:19.717Z,23.02
2022-10-17T13:46:37.956Z,22.79
2022-10-17T13:49:41.955Z,22.75
2022-10-17T13:52:44.350Z,22.78
2022-10-17T13:59:41.403Z,22.63
2022-10-17T14:02:43.684Z,22.59
2022-10-17T14:06:25.185Z,22.63
2022-10-17T14:09:29.352Z,22.31
2022-10-17T14:12:31.766Z,22.18
2022-10-17T14:15:35.745Z,22.15
2022-10-17T14:18:38.672Z,22.01
2022-10-17T14:21:44.608Z,22.12
2022-10-17T14:24:47.890Z,22.05
2022-10-17T14:27:57.984Z,22.04
2022-10-17T14:31:15.565Z,21.92
2022-10-17T14:34:24.941Z,21.72
2022-10-17T14:37:47.700Z,21.68
2022-10-17T14:41:37.369Z,21.69
2022-10-17T14:44:29.996Z,21.62
2022-10-17T14:47:43.242Z,21.56
2022-10-17T14:51:09.312Z,21.48
2022-10-17T14:54:20.295Z,21.42
2022-10-17T14:57:28.755Z,21.39
2022-10-17T15:00:31.217Z,21.25
2022-10-17T15:03:33.623Z,21.18
2022-10-17T15:06:35.774Z,21.04
2022-10-17T15:09:38.117Z,20.99
2022-10-17T15:12:47.913Z,20.86
2022-10-17T15:15:59.768Z,20.81
2022-10-17T15:19:02.037Z,20.72
2022-10-17T15:22:04.501Z,20.63
2022-10-17T15:25:07.444Z,20.52
2022-10-17T15:28:13.172Z,20.40
2022-10-17T15:31:18.202Z,20.28
2022-10-17T15:34:20.568Z,20.10
2022-10-17T15:37:25.469Z,19.95
2022-10-17T15:40:30.026Z,19.74
2022-10-17T15:43:32.244Z,19.54
2022-10-17T15:46:35.552Z,19.42
2022-10-17T15:49:37.611Z,19.34
2022-10-17T15:52:41.249Z,19.26
2022-10-17T15:55:43.384Z,19.18
2022-10-17T15:58:45.756Z,19.12
2022-10-17T16:01:48.776Z,19.00
2022-10-17T16:04:51.853Z,18.79
2022-10-17T16:07:54.843Z,18.60
2022-10-17T16:10:57.474Z,18.43
2022-10-17T16:14:02.208Z,18.15
2022-10-17T16:17:04.915Z,18.06
2022-10-17T16:20:07.801Z,18.02
2022-10-17T16:23:12.263Z,17.88
2022-10-17T16:26:16.106Z,17.73
2022-10-17T16:29:19.588Z,17.65
2022-10-17T16:32:21.788Z,17.62
2022-10-17T16:35:33.171Z,17.52
2022-10-17T16:38:38.943Z,17.40
2022-10-17T16:41:41.361Z,17.28
2022-10-17T16:44:43.475Z,17.16
2022-10-17T16:47:46.219Z,17.00
2022-10-17T16:50:48.519Z,16.86
2022-10-17T16:53:54.390Z,16.75
2022-10-17T16:56:59.461Z,16.57
2022-10-17T17:00:02.624Z,16.49
2022-10-17T17:03:04.907Z,16.39
2022-10-17T17:06:08.721Z,16.23
2022-10-17T17:09:10.961Z,16.18
2022-10-17T17:12:13.605Z,16.09
2022-10-17T17:15:15.739Z,16.07
2022-10-17T17:18:18.130Z,16.03
2022-10-17T17:21:20.241Z,15.91
2022-10-17T17:24:22.748Z,15.76
2022-10-17T17:27:28.407Z,15.74
2022-10-17T17:30:31.030Z,15.55
2022-10-17T17:33:33.931Z,15.54
2022-10-17T17:36:37.680Z,15.45
2022-10-17T17:39:39.964Z,15.54
2022-10-17T17:42:42.749Z,15.65
2022-10-17T17:45:46.085Z,15.59
2022-10-17T17:48:49.687Z,15.51
2022-10-17T17:51:52.002Z,15.54
2022-10-17T17:54:54.477Z,15.56
2022-10-17T17:57:57.113Z,15.43
2022-10-17T18:01:00.379Z,15.51
2022-10-17T18:04:02.645Z,15.52
2022-10-17T18:07:04.830Z,15.46
2022-10-17T18:10:07.965Z,15.41
2022-10-17T18:13:10.336Z,15.31
2022-10-17T18:16:13.505Z,15.26
2022-10-17T18:19:16.492Z,15.21
2022-10-17T18:22:18.607Z,15.23
2022-10-17T18:25:20.985Z,15.19
2022-10-17T18:28:24.052Z,15.19
2022-10-17T18:31:32.296Z,15.20
2022-10-17T18:34:34.628Z,15.23
2022-10-17T18:37:36.930Z,15.27
2022-10-17T18:40:38.978Z,15.31
2022-10-17T18:43:43.030Z,15.40
2022-10-17T18:49:48.781Z,15.48
2022-10-17T18:52:51.300Z,15.46
2022-10-17T18:55:54.658Z,15.49
2022-10-17T18:58:57.072Z,15.48
2022-10-17T19:01:59.703Z,15.46
2022-10-17T19:05:02.161Z,15.43
2022-10-17T19:08:04.953Z,15.44
2022-10-17T19:11:13.672Z,15.43
2022-10-17T19:14:16.264Z,15.36
2022-10-17T19:17:19.443Z,15.37
2022-10-17T19:20:21.811Z,15.32
2022-10-17T19:23:24.070Z,15.49
2022-10-17T19:26:28.361Z,15.54
2022-10-17T19:29:33.936Z,15.47
2022-10-17T19:32:36.666Z,15.53
2022-10-17T19:35:39.950Z,15.55
2022-10-17T19:38:42.171Z,15.44
2022-10-17T19:41:46.105Z,15.44
2022-10-17T19:44:48.361Z,15.47
2022-10-17T19:47:50.698Z,15.47
2022-10-17T19:50:53.608Z,15.46
2022-10-17T19:53:57.251Z,15.46
2022-10-17T19:56:59.574Z,15.52
2022-10-17T20:00:01.823Z,15.48
2022-10-17T20:03:13.677Z,15.48
2022-10-17T20:06:16.254Z,15.42
2022-10-17T20:09:18.623Z,15.31
2022-10-17T20:12:20.813Z,15.35
2022-10-17T20:15:23.265Z,15.27
2022-10-17T20:18:26.641Z,15.26
2022-10-17T20:21:32.565Z,15.32
2022-10-17T20:24:34.843Z,15.22
2022-10-17T20:27:37.337Z,15.22
2022-10-17T20:30:45.548Z,15.24
2022-10-17T20:33:47.875Z,15.26
2022-10-17T20:36:50.375Z,15.11
2022-10-17T20:40:16.644Z,15.07
2022-10-17T20:43:14.914Z,15.05
2022-10-17T20:46:35.163Z,15.07
2022-10-17T20:49:37.781Z,15.08
2022-10-17T20:52:40.114Z,15.06
2022-10-17T20:55:42.440Z,14.94
2022-10-17T20:58:44.673Z,14.96
2022-10-17T21:01:47.410Z,14.93
2022-10-17T21:04:49.936Z,14.89
2022-10-17T21:07:52.097Z,14.82
2022-10-17T21:10:54.394Z,14.74
2022-10-17T21:14:04.862Z,14.63
2022-10-17T21:17:07.211Z,14.52
2022-10-17T21:20:10.198Z,14.40
2022-10-17T21:23:12.541Z,14.34
2022-10-17T21:26:15.664Z,14.21
2022-10-17T21:29:18.032Z,14.02
2022-10-17T21:32:33.399Z,14.04
2022-10-17T21:35:42.295Z,13.98
2022-10-17T21:38:46.165Z,13.98
2022-10-17T21:41:48.332Z,13.94
2022-10-17T21:44:50.369Z,13.95
2022-10-17T21:48:11.820Z,13.95
2022-10-17T21:51:17.084Z,13.96
2022-10-17T21:54:20.071Z,13.94
2022-10-17T21:57:22.510Z,13.99
2022-10-17T22:00:24.799Z,14.04
2022-10-17T22:03:27.005Z,14.04
2022-10-17T22:06:39.619Z,13.99
2022-10-17T22:09:42.435Z,14.03
2022-10-17T22:12:44.662Z,14.00
2022-10-17T22:15:46.742Z,13.98
2022-10-17T22:18:49.192Z,13.92
2022-10-17T22:21:51.541Z,13.93
2022-10-17T22:24:53.947Z,13.85
2022-10-17T22:27:55.907Z,13.81
2022-10-17T22:30:58.275Z,13.78
2022-10-17T22:34:00.622Z,13.72
2022-10-17T22:37:02.981Z,13.68
2022-10-17T22:40:06.237Z,13.63
2022-10-17T22:43:08.476Z,13.56
2022-10-17T22:46:12.887Z,13.49
2022-10-17T22:49:15.271Z,13.41
2022-10-17T22:52:17.285Z,13.35
2022-10-17T22:55:19.550Z,13.27
2022-10-17T22:58:22.578Z,13.17
2022-10-17T23:01:25.646Z,13.08
2022-10-17T23:04:27.794Z,12.99
2022-10-17T23:07:30.813Z,12.91
2022-10-17T23:10:33.067Z,12.81
2022-10-17T23:13:35.562Z,12.73
2022-10-17T23:16:37.653Z,12.68
2022-10-17T23:19:40.192Z,12.52
2022-10-17T23:22:42.239Z,12.36
2022-10-17T23:25:44.546Z,12.38
2022-10-17T23:28:47.006Z,12.38
2022-10-17T23:31:49.626Z,12.40
2022-10-17T23:34:51.659Z,12.37
2022-10-17T23:37:53.868Z,12.37
2022-10-17T23:40:55.863Z,12.34
2022-10-17T23:43:58.636Z,12.31
2022-10-17T23:47:00.663Z,12.16
2022-10-17T23:50:03.568Z,12.13
2022-10-17T23:53:05.568Z,12.15
2022-10-17T23:56:09.431Z,12.05
2022-10-17T23:59:11.516Z,11.97
